createdAt,value
2023-04-13T00:03:36.892Z,34.68
2023-04-13T00:06:06.813Z,35.10
2023-04-13T00:08:35.009Z,35.27
2023-04-13T00:11:05.884Z,35.50
2023-04-13T00:13:35.450Z,35.57
2023-04-13T00:16:03.815Z,35.65
2023-04-13T00:18:33.650Z,35.86
2023-04-13T00:21:02.885Z,36.09
2023-04-13T00:23:31.098Z,36.11
2023-04-13T00:25:59.589Z,36.36
2023-04-13T00:28:29.516Z,36.49
2023-04-13T00:30:58.308Z,36.64
2023-04-13T00:33:26.787Z,36.56
2023-04-13T00:35:55.352Z,36.93
2023-04-13T00:38:25.776Z,36.95
2023-04-13T00:40:55.248Z,37.31
2023-04-13T00:43:23.843Z,37.37
2023-04-13T00:45:52.532Z,37.47
2023-04-13T00:48:21.052Z,37.65
2023-04-13T00:50:49.318Z,38.07
2023-04-13T00:53:18.465Z,37.95
2023-04-13T00:55:48.388Z,38.13
2023-04-13T00:58:17.613Z,38.14
2023-04-13T01:00:46.786Z,38.51
2023-04-13T01:03:16.647Z,38.53
2023-04-13T01:06:23.207Z,38.44
2023-04-13T01:09:16.078Z,38.88
2023-04-13T01:11:53.455Z,38.84
2023-04-13T01:14:33.144Z,39.09
2023-04-13T01:17:05.991Z,39.18
2023-04-13T01:19:56.731Z,39.33
2023-04-13T01:22:29.547Z,39.69
2023-04-13T01:25:10.284Z,39.39
2023-04-13T01:27:47.824Z,39.53
2023-04-13T01:30:19.434Z,39.55
2023-04-13T01:32:50.936Z,39.85
2023-04-13T01:35:20.681Z,39.99
2023-04-13T01:37:50.155Z,40.18
2023-04-13T01:40:22.205Z,40.46
2023-04-13T01:42:51.676Z,40.73
2023-04-13T01:45:27.539Z,40.75
2023-04-13T01:48:05.896Z,40.84
2023-04-13T01:50:41.240Z,40.91
2023-04-13T01:53:17.814Z,40.99
2023-04-13T01:55:48.558Z,41.19
2023-04-13T01:58:20.844Z,41.19
2023-04-13T02:00:49.261Z,41.29
2023-04-13T02:03:18.166Z,41.25
2023-04-13T02:05:47.636Z,41.61
2023-04-13T02:08:16.591Z,41.84
2023-04-13T02:10:45.475Z,41.79
2023-04-13T02:13:13.673Z,41.87
2023-04-13T02:15:42.245Z,42.12
2023-04-13T02:18:10.843Z,42.13
2023-04-13T02:20:41.759Z,42.28
2023-04-13T02:23:14.061Z,42.50
2023-04-13T02:25:43.852Z,42.38
2023-04-13T02:28:14.186Z,42.62
2023-04-13T02:30:43.745Z,42.67
2023-04-13T02:33:12.542Z,42.83
2023-04-13T02:35:41.476Z,43.02
2023-04-13T02:38:10.522Z,43.10
2023-04-13T02:40:39.419Z,43.16
2023-04-13T02:43:10.420Z,43.20
2023-04-13T02:45:40.119Z,43.35
2023-04-13T02:48:08.857Z,43.37
2023-04-13T02:50:38.143Z,43.44
2023-04-13T02:53:06.900Z,43.40
2023-04-13T02:55:35.710Z,43.42
2023-04-13T02:58:05.866Z,43.51
2023-04-13T03:00:35.441Z,43.50
2023-04-13T03:03:04.971Z,43.44
2023-04-13T03:05:34.318Z,43.53
2023-04-13T03:08:02.889Z,43.51
2023-04-13T03:10:32.342Z,43.70
2023-04-13T03:13:02.040Z,43.85
2023-04-13T03:15:31.171Z,43.81
2023-04-13T03:17:59.790Z,43.99
2023-04-13T03:20:29.501Z,43.99
2023-04-13T03:22:57.789Z,44.11
2023-04-13T03:25:26.015Z,44.00
2023-04-13T03:27:55.650Z,43.91
2023-04-13T03:30:24.043Z,44.09
2023-04-13T03:32:52.241Z,44.09
2023-04-13T03:35:21.005Z,44.21
2023-04-13T03:37:49.295Z,44.11
2023-04-13T03:40:17.427Z,44.08
2023-04-13T03:42:46.069Z,44.00
2023-04-13T03:45:14.786Z,44.25
2023-04-13T03:47:43.553Z,44.21
2023-04-13T03:50:12.575Z,44.14
2023-04-13T03:52:41.314Z,44.22
2023-04-13T03:55:10.422Z,44.26
2023-04-13T03:57:39.525Z,44.10
2023-04-13T04:00:08.614Z,44.25
2023-04-13T04:02:40.428Z,44.13
2023-04-13T04:05:09.909Z,44.03
2023-04-13T04:07:41.847Z,43.96
2023-04-13T04:10:11.399Z,43.99
2023-04-13T04:12:39.546Z,44.01
2023-04-13T04:15:09.460Z,43.92
2023-04-13T04:17:39.943Z,43.96
2023-04-13T04:20:09.380Z,43.79
2023-04-13T04:22:37.748Z,43.60
2023-04-13T04:25:07.187Z,43.66
2023-04-13T04:27:36.185Z,43.62
2023-04-13T04:30:07.121Z,43.70
2023-04-13T04:32:35.858Z,43.82
2023-04-13T04:35:05.909Z,43.83
2023-04-13T04:37:34.531Z,43.84
2023-04-13T04:40:07.906Z,43.87
2023-04-13T04:42:37.422Z,44.01
2023-04-13T04:45:06.896Z,44.05
2023-04-13T04:47:35.688Z,43.80
2023-04-13T04:50:06.213Z,43.73
2023-04-13T04:52:34.856Z,43.69
2023-04-13T04:55:03.690Z,43.79
2023-04-13T04:57:32.944Z,43.56
2023-04-13T05:00:02.322Z,43.54
2023-04-13T05:02:31.983Z,43.54
2023-04-13T05:05:02.575Z,43.09
2023-04-13T05:07:30.615Z,43.43
2023-04-13T05:09:58.958Z,43.23
2023-04-13T05:12:28.216Z,43.16
2023-04-13T05:14:56.910Z,42.84
2023-04-13T05:17:25.565Z,43.15
2023-04-13T05:19:54.536Z,43.78
2023-04-13T05:22:23.342Z,44.57
2023-04-13T05:24:52.140Z,47.60
2023-04-13T05:27:22.154Z,49.29
2023-04-13T05:29:50.899Z,50.16
2023-04-13T05:32:19.529Z,51.67
2023-04-13T05:34:48.560Z,52.12
2023-04-13T05:37:16.741Z,52.76
2023-04-13T05:39:45.971Z,54.67
2023-04-13T05:42:16.396Z,53.85
2023-04-13T05:44:45.126Z,54.05
2023-04-13T05:47:13.734Z,54.60
2023-04-13T05:49:42.880Z,56.56
2023-04-13T05:52:12.413Z,56.89
2023-04-13T05:54:41.151Z,58.01
2023-04-13T05:57:10.137Z,60.15
2023-04-13T05:59:38.861Z,61.08
2023-04-13T06:02:08.003Z,61.79
2023-04-13T06:04:38.858Z,61.66
2023-04-13T06:07:08.572Z,61.44
2023-04-13T06:09:37.254Z,61.51
2023-04-13T06:12:08.731Z,60.79
2023-04-13T06:14:37.980Z,61.16
2023-04-13T06:17:06.708Z,61.05
2023-04-13T06:19:35.609Z,61.05
2023-04-13T06:22:03.900Z,61.05
2023-04-13T06:24:32.413Z,61.01
2023-04-13T06:27:02.368Z,60.93
2023-04-13T06:29:31.315Z,60.75
2023-04-13T06:32:00.359Z,60.10
2023-04-13T06:34:29.163Z,59.88
2023-04-13T06:36:57.314Z,59.59
2023-04-13T06:39:28.246Z,59.90
2023-04-13T06:41:57.311Z,60.22
2023-04-13T06:44:26.654Z,61.03
2023-04-13T06:46:56.842Z,61.00
2023-04-13T06:49:25.215Z,60.94
2023-04-13T06:51:53.425Z,60.54
2023-04-13T06:54:22.278Z,61.12
2023-04-13T06:56:50.855Z,61.21
2023-04-13T06:59:19.760Z,61.51
2023-04-13T07:01:48.496Z,61.16
2023-04-13T07:04:17.287Z,61.41
2023-04-13T07:06:46.878Z,61.23
2023-04-13T07:09:16.858Z,61.29
2023-04-13T07:11:45.709Z,61.38
2023-04-13T07:14:13.850Z,61.67
2023-04-13T07:16:43.211Z,61.13
2023-04-13T07:19:12.547Z,60.34
2023-04-13T07:21:41.538Z,60.37
2023-04-13T07:24:09.765Z,60.98
2023-04-13T07:26:40.050Z,60.82
2023-04-13T07:29:08.084Z,60.28
2023-04-13T07:31:36.804Z,60.78
2023-04-13T07:34:05.550Z,60.94
2023-04-13T07:36:33.636Z,60.65
2023-04-13T07:39:01.997Z,59.46
2023-04-13T07:41:30.896Z,59.02
2023-04-13T07:44:00.720Z,58.84
2023-04-13T07:46:30.179Z,58.58
2023-04-13T07:48:58.656Z,58.15
2023-04-13T07:51:28.287Z,57.60
2023-04-13T07:53:57.590Z,56.34
2023-04-13T07:56:26.893Z,55.61
2023-04-13T07:58:55.078Z,54.55
2023-04-13T08:01:23.809Z,54.39
2023-04-13T08:03:52.669Z,54.41
2023-04-13T08:06:21.232Z,54.77
2023-04-13T08:08:50.240Z,54.11
2023-04-13T08:11:20.283Z,54.55
2023-04-13T08:13:49.909Z,55.70
2023-04-13T08:16:19.082Z,55.48
2023-04-13T08:18:48.347Z,55.03
2023-04-13T08:21:16.490Z,54.88
2023-04-13T08:23:44.972Z,54.12
2023-04-13T08:26:19.121Z,53.19
2023-04-13T08:28:49.065Z,52.17
2023-04-13T08:31:17.818Z,51.33
2023-04-13T08:33:46.806Z,50.60
2023-04-13T08:36:15.354Z,49.16
2023-04-13T08:38:43.973Z,47.25
2023-04-13T08:41:16.735Z,46.18
2023-04-13T08:43:46.687Z,44.59
2023-04-13T08:46:17.925Z,43.35
2023-04-13T08:48:54.069Z,43.40
2023-04-13T08:51:27.793Z,43.47
2023-04-13T08:53:56.359Z,42.14
2023-04-13T08:56:37.633Z,40.89
2023-04-13T08:59:13.328Z,37.67
2023-04-13T09:01:45.312Z,37.49
2023-04-13T09:04:17.674Z,36.98
2023-04-13T09:06:48.646Z,36.88
2023-04-13T09:09:19.373Z,35.20
2023-04-13T09:11:49.321Z,34.93
2023-04-13T09:14:19.727Z,33.78
2023-04-13T09:16:48.024Z,32.51
2023-04-13T09:19:16.260Z,31.01
2023-04-13T09:21:45.405Z,30.37
2023-04-13T09:24:14.187Z,29.50
2023-04-13T09:26:43.980Z,28.83
2023-04-13T09:29:20.458Z,28.08
2023-04-13T09:31:49.227Z,28.14
2023-04-13T09:34:30.418Z,27.67
2023-04-13T09:37:01.039Z,27.34
2023-04-13T09:39:30.093Z,27.57
2023-04-13T09:42:10.512Z,27.87
2023-04-13T09:44:38.962Z,28.28
2023-04-13T09:47:08.646Z,28.00
2023-04-13T09:49:40.111Z,28.44
2023-04-13T09:52:28.610Z,28.39
2023-04-13T09:54:58.184Z,28.07
2023-04-13T09:57:28.342Z,28.21
2023-04-13T09:59:58.650Z,28.50
2023-04-13T10:02:28.041Z,29.05
2023-04-13T10:04:57.832Z,28.86
2023-04-13T10:07:26.249Z,29.06
2023-04-13T10:09:54.675Z,29.18
2023-04-13T10:12:27.956Z,29.00
2023-04-13T10:15:11.085Z,28.07
2023-04-13T10:17:55.122Z,26.96
2023-04-13T10:20:26.652Z,27.03
2023-04-13T10:22:57.098Z,26.76
2023-04-13T10:25:32.839Z,25.04
2023-04-13T10:28:03.042Z,24.50
2023-04-13T10:30:33.105Z,23.96
2023-04-13T10:33:10.074Z,23.80
2023-04-13T10:35:42.149Z,23.80
2023-04-13T10:38:14.448Z,22.93
2023-04-13T10:40:48.339Z,22.92
2023-04-13T10:43:32.261Z,23.77
2023-04-13T10:46:11.596Z,24.57
2023-04-13T10:48:42.966Z,24.53
2023-04-13T10:51:13.399Z,24.70
2023-04-13T10:53:44.195Z,24.72
2023-04-13T10:56:18.901Z,24.22
2023-04-13T10:58:55.713Z,24.45
2023-04-13T11:01:27.116Z,25.83
2023-04-13T11:04:04.603Z,25.89
2023-04-13T11:06:40.356Z,26.12
2023-04-13T11:09:09.598Z,27.03
2023-04-13T11:11:37.791Z,28.04
2023-04-13T11:14:06.851Z,28.64
2023-04-13T11:16:45.269Z,28.96
2023-04-13T11:19:13.569Z,28.57
2023-04-13T11:21:42.466Z,28.09
2023-04-13T11:24:10.945Z,27.55
2023-04-13T11:26:39.189Z,26.27
2023-04-13T11:29:18.191Z,26.36
2023-04-13T11:31:46.611Z,26.79
2023-04-13T11:34:23.502Z,27.62
2023-04-13T11:37:01.954Z,28.18
2023-04-13T11:39:30.751Z,28.56
2023-04-13T11:42:05.129Z,28.58
2023-04-13T11:44:37.466Z,27.41
2023-04-13T11:47:06.593Z,27.95
2023-04-13T11:49:35.030Z,27.92
2023-04-13T11:52:04.396Z,27.45
2023-04-13T11:54:32.738Z,28.35
2023-04-13T11:57:01.112Z,29.55
2023-04-13T11:59:29.939Z,30.90
2023-04-13T12:02:03.679Z,32.49
2023-04-13T12:04:39.938Z,33.37
2023-04-13T12:07:13.075Z,33.73
2023-04-13T12:15:13.964Z,34.47
2023-04-13T12:17:58.120Z,35.95
2023-04-13T12:20:38.370Z,37.51
2023-04-13T12:23:26.664Z,38.29
2023-04-13T12:26:13.164Z,38.11
2023-04-13T12:28:55.437Z,37.90
2023-04-13T12:31:23.872Z,36.83
2023-04-13T12:33:52.279Z,36.70
2023-04-13T12:36:20.719Z,36.91
2023-04-13T12:38:49.256Z,36.79
2023-04-13T12:41:17.356Z,36.87
2023-04-13T12:43:45.639Z,37.98
2023-04-13T12:46:13.930Z,38.68
2023-04-13T12:48:42.081Z,39.49
2023-04-13T12:51:10.718Z,39.68
2023-04-13T12:53:39.577Z,39.72
2023-04-13T12:56:08.893Z,39.82
2023-04-13T12:58:37.800Z,39.99
2023-04-13T13:01:06.029Z,40.20
2023-04-13T13:03:34.534Z,40.13
2023-04-13T13:06:05.939Z,39.74
2023-04-13T13:08:37.577Z,38.90
2023-04-13T13:11:08.566Z,38.63
2023-04-13T13:13:36.917Z,38.96
2023-04-13T13:16:05.625Z,39.50
2023-04-13T13:18:49.194Z,39.76
2023-04-13T13:21:19.203Z,39.28
2023-04-13T13:23:47.464Z,38.96
2023-04-13T13:28:47.957Z,38.69
2023-04-13T13:31:16.645Z,38.76
2023-04-13T13:33:45.554Z,38.57
2023-04-13T13:36:14.893Z,38.51
2023-04-13T13:38:47.185Z,39.03
2023-04-13T13:41:15.504Z,39.93
2023-04-13T13:43:43.591Z,41.03
2023-04-13T13:46:11.961Z,41.49
2023-04-13T13:48:40.313Z,42.08
2023-04-13T13:51:08.460Z,42.34
2023-04-13T13:53:36.552Z,42.04
2023-04-13T13:56:05.557Z,42.06
2023-04-13T13:58:33.762Z,42.12
2023-04-13T14:01:02.268Z,41.43
2023-04-13T14:03:31.202Z,41.39
2023-04-13T14:06:00.434Z,40.84
2023-04-13T14:08:29.863Z,40.70
2023-04-13T14:10:58.649Z,40.54
2023-04-13T14:13:28.042Z,40.76
2023-04-13T14:15:57.901Z,41.61
2023-04-13T14:18:26.942Z,42.06
2023-04-13T14:20:57.428Z,42.05
2023-04-13T14:23:27.350Z,42.30
2023-04-13T14:25:55.727Z,42.37
2023-04-13T14:28:23.997Z,42.33
2023-04-13T14:30:52.903Z,42.88
2023-04-13T14:33:21.084Z,42.74
2023-04-13T14:35:49.317Z,42.58
2023-04-13T14:38:17.643Z,42.80
2023-04-13T14:40:46.327Z,42.80
2023-04-13T14:43:14.440Z,43.10
2023-04-13T14:45:43.417Z,43.44
2023-04-13T14:48:11.667Z,43.87
2023-04-13T14:50:39.939Z,43.88
2023-04-13T14:53:08.417Z,43.99
2023-04-13T14:55:37.025Z,43.89
2023-04-13T14:58:05.277Z,43.75
2023-04-13T15:00:33.642Z,43.55
2023-04-13T15:03:02.332Z,43.46
2023-04-13T15:05:36.925Z,43.91
2023-04-13T15:08:06.145Z,44.46
2023-04-13T15:10:35.130Z,44.81
2023-04-13T15:13:04.549Z,45.56
2023-04-13T15:15:34.573Z,46.15
2023-04-13T15:18:04.798Z,46.55
2023-04-13T15:20:33.312Z,46.41
2023-04-13T15:23:01.969Z,46.59
2023-04-13T15:25:30.369Z,46.13
2023-04-13T15:27:59.068Z,45.54
2023-04-13T15:30:30.861Z,45.31
2023-04-13T15:33:00.570Z,45.32
2023-04-13T15:35:30.787Z,45.44
2023-04-13T15:38:03.091Z,45.43
2023-04-13T15:40:33.935Z,45.25
2023-04-13T15:43:03.956Z,45.28
2023-04-13T15:45:34.588Z,45.29
2023-04-13T15:48:02.872Z,45.93
2023-04-13T15:50:31.488Z,46.38
2023-04-13T15:53:00.171Z,46.16
2023-04-13T15:55:29.631Z,46.32
2023-04-13T15:57:58.739Z,46.53
2023-04-13T16:00:27.494Z,46.42
2023-04-13T16:02:56.573Z,46.26
2023-04-13T16:05:25.317Z,46.39
2023-04-13T16:07:54.887Z,46.61
2023-04-13T16:10:24.256Z,46.83
2023-04-13T16:12:52.898Z,47.11
2023-04-13T16:15:22.705Z,46.77
2023-04-13T16:17:51.687Z,46.58
2023-04-13T16:20:21.698Z,47.01
2023-04-13T16:22:51.951Z,47.02
2023-04-13T16:25:21.251Z,47.35
2023-04-13T16:27:49.889Z,47.52
2023-04-13T16:30:18.971Z,47.86
2023-04-13T16:32:49.648Z,48.08
2023-04-13T16:35:18.465Z,48.05
2023-04-13T16:37:46.964Z,48.03
2023-04-13T16:40:15.208Z,48.43
2023-04-13T16:42:44.234Z,48.20
2023-04-13T16:45:14.985Z,48.47
2023-04-13T16:47:45.304Z,48.90
2023-04-13T16:50:14.970Z,49.44
2023-04-13T16:52:43.672Z,49.30
2023-04-13T16:55:13.416Z,49.76
2023-04-13T16:57:43.488Z,49.80
2023-04-13T17:00:12.608Z,49.94
2023-04-13T17:02:42.611Z,50.12
2023-04-13T17:05:12.696Z,50.53
2023-04-13T17:07:43.556Z,50.32
2023-04-13T17:10:13.304Z,50.93
2023-04-13T17:12:41.760Z,51.18
2023-04-13T17:15:11.933Z,51.42
2023-04-13T17:17:42.115Z,51.42
2023-04-13T17:20:12.054Z,52.01
2023-04-13T17:22:40.604Z,52.16
2023-04-13T17:25:13.704Z,52.05
2023-04-13T17:27:42.361Z,51.96
2023-04-13T17:30:13.903Z,52.13
2023-04-13T17:32:42.243Z,52.39
2023-04-13T17:35:11.307Z,52.63
2023-04-13T17:37:40.927Z,53.16
2023-04-13T17:40:10.047Z,53.15
2023-04-13T17:42:38.829Z,53.36
2023-04-13T17:45:09.548Z,53.29
2023-04-13T17:47:37.942Z,53.30
2023-04-13T17:50:08.514Z,53.34
2023-04-13T17:52:37.221Z,53.83
2023-04-13T17:55:07.049Z,53.96
2023-04-13T17:57:35.343Z,54.06
2023-04-13T18:00:05.031Z,54.33
2023-04-13T18:02:33.711Z,54.50
2023-04-13T18:05:05.486Z,54.88
2023-04-13T18:07:33.822Z,55.20
2023-04-13T18:10:03.059Z,55.19
2023-04-13T18:12:31.460Z,55.29
2023-04-13T18:14:59.736Z,55.71
2023-04-13T18:17:28.776Z,55.83
2023-04-13T18:19:58.332Z,55.86
2023-04-13T18:22:26.976Z,55.92
2023-04-13T18:24:55.611Z,56.14
2023-04-13T18:27:25.507Z,56.54
2023-04-13T18:29:55.357Z,56.91
2023-04-13T18:32:23.957Z,57.01
2023-04-13T18:34:52.649Z,57.33
2023-04-13T18:37:21.276Z,57.77
2023-04-13T18:39:49.380Z,57.76
2023-04-13T18:42:17.913Z,57.93
2023-04-13T18:44:46.021Z,58.10
2023-04-13T18:47:14.116Z,58.12
2023-04-13T18:49:42.900Z,58.49
2023-04-13T18:52:11.389Z,58.96
2023-04-13T18:54:39.538Z,58.64
2023-04-13T18:57:07.840Z,58.92
2023-04-13T18:59:36.277Z,59.01
2023-04-13T19:02:05.793Z,59.43
2023-04-13T19:04:35.490Z,59.63
2023-04-13T19:07:03.742Z,60.00
2023-04-13T19:09:31.993Z,60.19
2023-04-13T19:12:00.276Z,60.26
2023-04-13T19:14:28.373Z,60.44
2023-04-13T19:16:57.989Z,60.41
2023-04-13T19:19:26.899Z,60.71
2023-04-13T19:21:56.485Z,60.81
2023-04-13T19:24:24.854Z,61.11
2023-04-13T19:26:53.390Z,60.95
2023-04-13T19:29:21.614Z,61.13
2023-04-13T19:31:49.887Z,61.31
2023-04-13T19:34:18.754Z,61.38
2023-04-13T19:36:46.822Z,61.77
2023-04-13T19:39:17.131Z,61.45
2023-04-13T19:41:45.770Z,61.65
2023-04-13T19:44:14.723Z,61.74
2023-04-13T19:46:43.868Z,61.79
2023-04-13T19:49:13.827Z,61.68
2023-04-13T19:51:42.532Z,61.79
2023-04-13T19:54:10.840Z,61.77
2023-04-13T19:56:39.328Z,61.97
2023-04-13T19:59:08.754Z,62.01
2023-04-13T20:01:36.935Z,61.97
2023-04-13T20:04:06.143Z,61.52
2023-04-13T20:06:35.441Z,61.34
2023-04-13T20:09:12.602Z,61.17
2023-04-13T20:11:41.277Z,61.12
2023-04-13T20:14:10.090Z,61.19
2023-04-13T20:16:39.107Z,60.89
2023-04-13T20:19:09.095Z,60.84
2023-04-13T20:21:37.467Z,60.88
2023-04-13T20:24:06.337Z,60.89
2023-04-13T20:26:34.565Z,60.91
2023-04-13T20:29:04.638Z,60.87
2023-04-13T20:31:33.671Z,60.81
2023-04-13T20:34:02.513Z,60.76
2023-04-13T20:36:31.710Z,60.53
2023-04-13T20:39:00.529Z,60.45
2023-04-13T20:41:30.181Z,60.26
2023-04-13T20:44:00.697Z,60.14
2023-04-13T20:46:29.393Z,59.93
2023-04-13T20:48:57.955Z,59.76
2023-04-13T20:51:26.193Z,59.75
2023-04-13T20:53:54.516Z,59.63
2023-04-13T20:56:22.701Z,59.51
2023-04-13T20:58:53.242Z,59.38
2023-04-13T21:01:23.629Z,59.43
2023-04-13T21:03:53.431Z,59.35
2023-04-13T21:06:22.957Z,59.07
2023-04-13T21:08:51.257Z,58.96
2023-04-13T21:11:19.474Z,58.78
2023-04-13T21:13:47.759Z,58.66
2023-04-13T21:16:15.907Z,58.32
2023-04-13T21:18:44.937Z,58.18
2023-04-13T21:21:13.018Z,58.11
2023-04-13T21:23:41.505Z,58.14
2023-04-13T21:26:09.758Z,57.95
2023-04-13T21:28:38.833Z,58.04
2023-04-13T21:31:07.022Z,58.01
2023-04-13T21:33:35.248Z,57.96
2023-04-13T21:38:41.001Z,57.87
2023-04-13T21:41:15.778Z,57.79
2023-04-13T21:43:45.912Z,57.72
2023-04-13T21:46:15.933Z,57.64
2023-04-13T21:48:44.284Z,57.69
2023-04-13T21:51:13.987Z,57.74
2023-04-13T21:53:42.346Z,57.82
2023-04-13T21:56:11.199Z,57.77
2023-04-13T21:58:41.360Z,57.76
2023-04-13T22:01:10.036Z,57.79
2023-04-13T22:03:40.273Z,57.86
2023-04-13T22:06:11.223Z,57.96
2023-04-13T22:08:40.410Z,58.04
2023-04-13T22:11:12.214Z,58.08
2023-04-13T22:13:42.059Z,58.22
2023-04-13T22:16:10.608Z,58.32
2023-04-13T22:18:39.457Z,58.40
2023-04-13T22:21:08.019Z,58.53
2023-04-13T22:23:36.339Z,58.67
2023-04-13T22:26:06.083Z,58.79
2023-04-13T22:28:34.197Z,59.07
2023-04-13T22:31:07.002Z,59.20
2023-04-13T22:33:36.550Z,59.34
2023-04-13T22:36:06.559Z,59.45
2023-04-13T22:38:34.797Z,59.65
2023-04-13T22:41:07.594Z,59.77
2023-04-13T22:43:36.065Z,59.85
2023-04-13T22:46:05.146Z,59.94
2023-04-13T22:48:33.676Z,60.11
2023-04-13T22:51:02.510Z,60.47
2023-04-13T22:53:31.190Z,60.59
2023-04-13T22:55:59.547Z,60.90
2023-04-13T22:58:28.333Z,60.93
2023-04-13T23:00:56.739Z,61.07
2023-04-13T23:03:25.548Z,61.06
2023-04-13T23:05:54.216Z,61.11
2023-04-13T23:08:23.911Z,61.18
2023-04-13T23:10:52.490Z,61.43
2023-04-13T23:13:21.513Z,61.59
2023-04-13T23:15:58.545Z,61.64
2023-04-13T23:18:28.608Z,61.86
2023-04-13T23:20:57.332Z,62.12
2023-04-13T23:23:25.796Z,62.40
2023-04-13T23:25:54.609Z,62.47
2023-04-13T23:28:23.901Z,62.65
2023-04-13T23:30:52.681Z,62.59
2023-04-13T23:33:29.862Z,62.77
2023-04-13T23:35:59.161Z,62.92
2023-04-13T23:38:28.319Z,63.17
2023-04-13T23:40:58.379Z,63.16
2023-04-13T23:43:27.124Z,63.23
2023-04-13T23:45:58.218Z,63.32
2023-04-13T23:48:26.595Z,63.51
2023-04-13T23:50:55.477Z,63.54
2023-04-13T23:53:26.093Z,63.63
2023-04-13T23:55:54.283Z,63.81
2023-04-13T23:58:22.715Z,63.88
